Ever Unicorn — 9V7963 — position and weather

sailwx.info

Track history (hours):
 
Tides and Currents Weather Stations Pressure Air Temp Water Temp Dewpoint Dewpoint Depression Visibility Wind Speed Wind Dir Waves Ship Positions

Ever Unicorn

Last reported at 2015-Mar-26 20:31 UTC. Time now 2015-Mar-28 09:21 UTC.
Position N 48°31' W 126°47'.

Length 285 m; draft 12.4 m.

Type: Ship (hazmat cat D). MMSI: 564995000.

Date/timePositionNaut miles runAvg speedWind from/ knotsBaromVisibWave heightAir tempDewpointWater temp
2015-Mar-26 20:31N 48°31' W 126°47'1717.8
2015-Mar-26 19:33N 48°31' W 126°21'1818.2
2015-Mar-26 18:33N 48°31' W 125°54'1918.9
2015-Mar-26 17:34N 48°31' W 125°25'1918.8
2015-Mar-26 16:34N 48°31' W 124°57'1717.4
2015-Mar-26 15:33N 48°27' W 124°32'1818.0
2015-Mar-26 14:34N 48°21' W 124°06'1818.4
2015-Mar-26 13:34N 48°16' W 123°39'1313.1
2015-Mar-26 12:33N 48°23' W 123°23'1211.8
2015-Mar-26 11:33N 48°33' W 123°13'1615.5
2015-Mar-26 10:33N 48°47' W 123°02'1817.7
2015-Mar-26 09:33N 49°00' W 123°19'1616.4
2015-Mar-26 08:33N 49°17' W 123°20'10 9.8
2015-Mar-26 07:31N 49°17' W 123°04'0 0.1
2015-Mar-26 06:31N 49°17' W 123°05'0 0.0
2015-Mar-26 05:31N 49°17' W 123°05'0 0.0
2015-Mar-26 04:31N 49°17' W 123°05'0 0.0
2015-Mar-26 03:33N 49°17' W 123°05'0 0.0
2015-Mar-26 02:33N 49°17' W 123°05'0 0.0
2015-Mar-26 01:33N 49°17' W 123°05'0 0.0
2015-Mar-26 00:33N 49°17' W 123°05'0 0.0
2015-Mar-25 23:33N 49°17' W 123°05'0 0.0
2015-Mar-25 22:33N 49°17' W 123°05'0 0.0
2015-Mar-25 21:33N 49°17' W 123°05'0 0.0
2015-Mar-25 20:33N 49°17' W 123°05'0 0.0
2015-Mar-25 19:33N 49°17' W 123°05'0 0.0
2015-Mar-25 18:33N 49°17' W 123°05'0 0.0
2015-Mar-25 17:33N 49°17' W 123°05'0 0.0
2015-Mar-25 16:33N 49°17' W 123°05'0 0.0
2015-Mar-25 15:33N 49°17' W 123°05'0 0.0
2015-Mar-25 14:33N 49°17' W 123°05'0 0.0
2015-Mar-25 13:33N 49°17' W 123°05'0 0.0
2015-Mar-25 12:33N 49°17' W 123°05'0 0.0
2015-Mar-25 11:33N 49°17' W 123°05'0 0.0
2015-Mar-25 10:33N 49°17' W 123°05'0 0.0
2015-Mar-25 09:33N 49°17' W 123°05'0 0.0
2015-Mar-25 08:33N 49°17' W 123°05'0 0.0
2015-Mar-25 07:33N 49°17' W 123°05'0 0.0
2015-Mar-25 06:33N 49°17' W 123°05'0 0.0
2015-Mar-25 05:33N 49°17' W 123°05'0 0.0
2015-Mar-25 04:33N 49°17' W 123°05'0 0.0
2015-Mar-25 03:33N 49°17' W 123°05'0 0.0
2015-Mar-25 02:33N 49°17' W 123°05'0 0.0
2015-Mar-25 01:33N 49°17' W 123°05'0 0.0
2015-Mar-25 00:33N 49°17' W 123°05'0 0.0
2015-Mar-24 23:33N 49°17' W 123°05'0 0.0
2015-Mar-24 22:33N 49°17' W 123°05'0 0.0
2015-Mar-24 21:33N 49°17' W 123°05'0 0.0
2015-Mar-24 20:33N 49°17' W 123°05'0 0.0
2015-Mar-24 19:33N 49°17' W 123°05'0 0.0
2015-Mar-24 18:33N 49°17' W 123°05'0 0.0
2015-Mar-24 17:33N 49°17' W 123°05'0 0.0
2015-Mar-24 16:33N 49°17' W 123°05'0 0.0
2015-Mar-24 15:33N 49°17' W 123°05'0 0.0
2015-Mar-24 14:33N 49°17' W 123°05'0 0.0
2015-Mar-24 13:33N 49°17' W 123°05'0 0.1
2015-Mar-24 12:33N 49°17' W 123°05'8 7.7
2015-Mar-24 11:34N 49°18' W 123°16'1615.6
2015-Mar-24 10:34N 49°02' W 123°18'1818.5
2015-Mar-24 09:34N 48°48' W 122°60'1514.8
2015-Mar-24 08:33N 48°36' W 123°13'1414.2
2015-Mar-24 07:34N 48°22' W 123°16'4 4.2
2015-Mar-24 06:33N 48°20' W 123°22'0 0.1
2015-Mar-24 05:33N 48°20' W 123°22'0 0.1
2015-Mar-24 04:33N 48°20' W 123°22'0 0.1
2015-Mar-24 03:30N 48°20' W 123°21'0 0.1
2015-Mar-24 02:33N 48°20' W 123°21'0 0.0
2015-Mar-24 01:33N 48°20' W 123°21'0 0.0
2015-Mar-24 00:33N 48°20' W 123°21'0 0.0
2015-Mar-23 23:33N 48°20' W 123°21'0 0.0
2015-Mar-23 22:33N 48°20' W 123°21'0 0.2
2015-Mar-23 21:33N 48°20' W 123°22'0 0.0
2015-Mar-23 20:33N 48°20' W 123°22'0 0.0
2015-Mar-23 19:33N 48°20' W 123°22'0 0.0
2015-Mar-23 18:33N 48°20' W 123°22'0 0.0
2015-Mar-23 17:33N 48°20' W 123°22'0 0.0
2015-Mar-23 16:33N 48°20' W 123°22'0 0.0
2015-Mar-23 15:33N 48°20' W 123°22'0 0.2
2015-Mar-23 14:33N 48°20' W 123°21'0 0.0
2015-Mar-23 13:33N 48°20' W 123°21'0 0.0
2015-Mar-23 12:33N 48°20' W 123°21'0 0.0
2015-Mar-23 11:33N 48°20' W 123°21'0 0.0
2015-Mar-23 10:33N 48°20' W 123°21'0 0.1
2015-Mar-23 09:33N 48°20' W 123°22'0 0.1
2015-Mar-23 08:33N 48°20' W 123°22'0 0.1
2015-Mar-23 07:30N 48°20' W 123°22'0 0.0
2015-Mar-23 06:30N 48°20' W 123°22'0 0.0
2015-Mar-23 05:33N 48°20' W 123°22'0 0.0
2015-Mar-23 04:33N 48°20' W 123°22'0 0.2
2015-Mar-23 03:33N 48°20' W 123°22'0 0.2
2015-Mar-23 02:33N 48°20' W 123°21'0 0.0
2015-Mar-23 01:33N 48°20' W 123°21'0 0.1
2015-Mar-23 00:33N 48°20' W 123°21'0 0.0
2015-Mar-22 23:33N 48°20' W 123°21'0 0.0
2015-Mar-22 22:33N 48°20' W 123°21'0 0.1
2015-Mar-22 21:33N 48°20' W 123°22'0 0.2
2015-Mar-22 20:33N 48°20' W 123°22'0 0.0
2015-Mar-22 19:33N 48°20' W 123°22'0 0.0
2015-Mar-22 18:33N 48°20' W 123°22'0 0.0
2015-Mar-22 17:33N 48°20' W 123°22'0 0.0
2015-Mar-22 16:33N 48°20' W 123°22'2 1.6
2015-Mar-22 15:33N 48°19' W 123°24'1110.5
2015-Mar-22 14:33N 48°09' W 123°22'1414.5
2015-Mar-22 13:33N 48°12' W 123°01'1615.7
2015-Mar-22 12:33N 48°07' W 122°39'1515.4
2015-Mar-22 11:33N 47°53' W 122°28'1717.4
2015-Mar-22 10:33N 47°36' W 122°27'1414.0
2015-Mar-22 09:34N 47°23' W 122°21'7 6.7
2015-Mar-22 08:34N 47°16' W 122°24'1 1.0
2015-Mar-22 07:30N 47°15' W 122°23'0 0.0
2015-Mar-22 06:31N 47°15' W 122°23'0 0.0
2015-Mar-22 05:30N 47°15' W 122°23'0 0.0
2015-Mar-22 04:30N 47°15' W 122°23'0 0.0
2015-Mar-22 03:24N 47°15' W 122°23'0 0.0
2015-Mar-22 02:06N 47°15' W 122°23'0 0.0
2015-Mar-22 00:30N 47°15' W 122°23'0 0.0
2015-Mar-21 23:30N 47°15' W 122°23'0 0.0
2015-Mar-21 22:06N 47°15' W 122°23'0 0.0
2015-Mar-21 21:30N 47°15' W 122°23'0 0.0
2015-Mar-21 20:30N 47°15' W 122°23'0 0.0
2015-Mar-21 19:30N 47°15' W 122°23'0 0.0
2015-Mar-21 18:24N 47°15' W 122°23'0 0.0
2015-Mar-21 17:30N 47°15' W 122°23'0 0.0
2015-Mar-21 16:30N 47°15' W 122°23'0 0.0
2015-Mar-21 15:30N 47°15' W 122°23'0 0.0
2015-Mar-21 14:30N 47°15' W 122°23'0 0.0
2015-Mar-21 13:30N 47°15' W 122°23'0 0.0
2015-Mar-21 12:30N 47°15' W 122°23'0 0.0
2015-Mar-21 11:30N 47°15' W 122°23'0 0.0
2015-Mar-21 10:24N 47°15' W 122°23'0 0.0
2015-Mar-21 09:30N 47°15' W 122°23'0 0.0
2015-Mar-21 08:12N 47°15' W 122°23'0 0.0
2015-Mar-21 07:24N 47°15' W 122°23'0 0.0
2015-Mar-21 06:30N 47°15' W 122°23'0 0.0
2015-Mar-21 05:30N 47°15' W 122°23'0 0.0
2015-Mar-21 04:30N 47°15' W 122°23'0 0.0
2015-Mar-21 03:24N 47°15' W 122°23'0 0.0
2015-Mar-21 02:06N 47°15' W 122°23'0 0.0
2015-Mar-21 01:24N 47°15' W 122°23'0 0.0
2015-Mar-21 00:24N 47°15' W 122°23'0 0.0
2015-Mar-20 23:30N 47°15' W 122°23'0 0.0
2015-Mar-20 22:30N 47°15' W 122°23'0 0.0
2015-Mar-20 20:24N 47°15' W 122°23'0 0.0
2015-Mar-20 19:21N 47°15' W 122°23'0 0.0
2015-Mar-20 17:33N 47°15' W 122°23'0 0.0
2015-Mar-20 16:33N 47°15' W 122°23'0 0.0
2015-Mar-20 15:33N 47°15' W 122°23'0 0.0
2015-Mar-20 14:33N 47°15' W 122°23'0 0.0
2015-Mar-20 13:33N 47°15' W 122°23'0 0.0
2015-Mar-20 12:24N 47°15' W 122°23'0 0.0
2015-Mar-20 11:18N 47°15' W 122°23'0 0.0
2015-Mar-20 10:12N 47°15' W 122°23'0 0.0
2015-Mar-20 09:18N 47°15' W 122°23'0 0.0
2015-Mar-20 08:30N 47°15' W 122°23'0 0.0
2015-Mar-20 06:24N 47°15' W 122°23'0 0.0
2015-Mar-19 21:30N 47°15' W 122°23'0 0.0
2015-Mar-19 18:12N 47°15' W 122°23'0 0.0
2015-Mar-19 16:12N 47°15' W 122°23'0 0.0
2015-Mar-19 15:24N 47°15' W 122°23'0 0.0
2015-Mar-19 14:30N 47°15' W 122°23'0 0.0
2015-Mar-19 13:30N 47°15' W 122°23'0 0.0
2015-Mar-19 12:30N 47°15' W 122°23'0 0.0
2015-Mar-19 11:30N 47°15' W 122°23'0 0.0
2015-Mar-19 10:30N 47°15' W 122°23'0 0.0
2015-Mar-19 09:30N 47°15' W 122°23'2 1.9
2015-Mar-19 08:33N 47°17' W 122°24'7 6.9
2015-Mar-19 07:34N 47°23' W 122°22'1716.7
2015-Mar-19 06:34N 47°39' W 122°28'1716.7
2015-Mar-19 05:34N 47°56' W 122°32'1515.3
2015-Mar-19 04:34N 48°09' W 122°44'1615.9
2015-Mar-19 03:33N 48°12' W 123°07'1312.6
2015-Mar-19 02:33N 48°11' W 123°26'1110.9
2015-Mar-19 01:33N 48°13' W 123°42'1313.2
2015-Mar-19 00:33N 48°15' W 124°02'1313.2
2015-Mar-18 23:33N 48°21' W 124°19'1414.1
2015-Mar-18 22:34N 48°27' W 124°39'1414.4
2015-Mar-18 21:33N 48°28' W 125°00'1515.3
2015-Mar-18 20:33N 48°23' W 125°22'1715.9
2015-Mar-18 19:30N 48°14' W 125°43'  
Track history (hours):
 
Tides and Currents Weather Stations Pressure Air Temp Water Temp Dewpoint Dewpoint Depression Visibility Wind Speed Wind Dir Waves Ship Positions

Ever Unicorn

Last reported at 2015-Mar-26 20:31 UTC. Time now 2015-Mar-28 09:21 UTC.
Position N 48°31' W 126°47'.

Length 285 m; draft 12.4 m.

Type: Ship (hazmat cat D). MMSI: 564995000.

Date/timePositionNaut miles runAvg speedWind from/ knotsBaromVisibWave heightAir tempDewpointWater temp
2015-Mar-26 20:31N 48°31' W 126°47'1717.8
2015-Mar-26 19:33N 48°31' W 126°21'1818.2
2015-Mar-26 18:33N 48°31' W 125°54'1918.9
2015-Mar-26 17:34N 48°31' W 125°25'1918.8
2015-Mar-26 16:34N 48°31' W 124°57'1717.4
2015-Mar-26 15:33N 48°27' W 124°32'1818.0
2015-Mar-26 14:34N 48°21' W 124°06'1818.4
2015-Mar-26 13:34N 48°16' W 123°39'1313.1
2015-Mar-26 12:33N 48°23' W 123°23'1211.8
2015-Mar-26 11:33N 48°33' W 123°13'1615.5
2015-Mar-26 10:33N 48°47' W 123°02'1817.7
2015-Mar-26 09:33N 49°00' W 123°19'1616.4
2015-Mar-26 08:33N 49°17' W 123°20'10 9.8
2015-Mar-26 07:31N 49°17' W 123°04'0 0.1
2015-Mar-26 06:31N 49°17' W 123°05'0 0.0
2015-Mar-26 05:31N 49°17' W 123°05'0 0.0
2015-Mar-26 04:31N 49°17' W 123°05'0 0.0
2015-Mar-26 03:33N 49°17' W 123°05'0 0.0
2015-Mar-26 02:33N 49°17' W 123°05'0 0.0
2015-Mar-26 01:33N 49°17' W 123°05'0 0.0
2015-Mar-26 00:33N 49°17' W 123°05'0 0.0
2015-Mar-25 23:33N 49°17' W 123°05'0 0.0
2015-Mar-25 22:33N 49°17' W 123°05'0 0.0
2015-Mar-25 21:33N 49°17' W 123°05'0 0.0
2015-Mar-25 20:33N 49°17' W 123°05'0 0.0
2015-Mar-25 19:33N 49°17' W 123°05'0 0.0
2015-Mar-25 18:33N 49°17' W 123°05'0 0.0
2015-Mar-25 17:33N 49°17' W 123°05'0 0.0
2015-Mar-25 16:33N 49°17' W 123°05'0 0.0
2015-Mar-25 15:33N 49°17' W 123°05'0 0.0
2015-Mar-25 14:33N 49°17' W 123°05'0 0.0
2015-Mar-25 13:33N 49°17' W 123°05'0 0.0
2015-Mar-25 12:33N 49°17' W 123°05'0 0.0
2015-Mar-25 11:33N 49°17' W 123°05'0 0.0
2015-Mar-25 10:33N 49°17' W 123°05'0 0.0
2015-Mar-25 09:33N 49°17' W 123°05'0 0.0
2015-Mar-25 08:33N 49°17' W 123°05'0 0.0
2015-Mar-25 07:33N 49°17' W 123°05'0 0.0
2015-Mar-25 06:33N 49°17' W 123°05'0 0.0
2015-Mar-25 05:33N 49°17' W 123°05'0 0.0
2015-Mar-25 04:33N 49°17' W 123°05'0 0.0
2015-Mar-25 03:33N 49°17' W 123°05'0 0.0
2015-Mar-25 02:33N 49°17' W 123°05'0 0.0
2015-Mar-25 01:33N 49°17' W 123°05'0 0.0
2015-Mar-25 00:33N 49°17' W 123°05'0 0.0
2015-Mar-24 23:33N 49°17' W 123°05'0 0.0
2015-Mar-24 22:33N 49°17' W 123°05'0 0.0
2015-Mar-24 21:33N 49°17' W 123°05'0 0.0
2015-Mar-24 20:33N 49°17' W 123°05'0 0.0
2015-Mar-24 19:33N 49°17' W 123°05'0 0.0
2015-Mar-24 18:33N 49°17' W 123°05'0 0.0
2015-Mar-24 17:33N 49°17' W 123°05'0 0.0
2015-Mar-24 16:33N 49°17' W 123°05'0 0.0
2015-Mar-24 15:33N 49°17' W 123°05'0 0.0
2015-Mar-24 14:33N 49°17' W 123°05'0 0.0
2015-Mar-24 13:33N 49°17' W 123°05'0 0.1
2015-Mar-24 12:33N 49°17' W 123°05'8 7.7
2015-Mar-24 11:34N 49°18' W 123°16'1615.6
2015-Mar-24 10:34N 49°02' W 123°18'1818.5
2015-Mar-24 09:34N 48°48' W 122°60'1514.8
2015-Mar-24 08:33N 48°36' W 123°13'1414.2
2015-Mar-24 07:34N 48°22' W 123°16'4 4.2
2015-Mar-24 06:33N 48°20' W 123°22'0 0.1
2015-Mar-24 05:33N 48°20' W 123°22'0 0.1
2015-Mar-24 04:33N 48°20' W 123°22'0 0.1
2015-Mar-24 03:30N 48°20' W 123°21'0 0.1
2015-Mar-24 02:33N 48°20' W 123°21'0 0.0
2015-Mar-24 01:33N 48°20' W 123°21'0 0.0
2015-Mar-24 00:33N 48°20' W 123°21'0 0.0
2015-Mar-23 23:33N 48°20' W 123°21'0 0.0
2015-Mar-23 22:33N 48°20' W 123°21'0 0.2
2015-Mar-23 21:33N 48°20' W 123°22'0 0.0
2015-Mar-23 20:33N 48°20' W 123°22'0 0.0
2015-Mar-23 19:33N 48°20' W 123°22'0 0.0
2015-Mar-23 18:33N 48°20' W 123°22'0 0.0
2015-Mar-23 17:33N 48°20' W 123°22'0 0.0
2015-Mar-23 16:33N 48°20' W 123°22'0 0.0
2015-Mar-23 15:33N 48°20' W 123°22'0 0.2
2015-Mar-23 14:33N 48°20' W 123°21'0 0.0
2015-Mar-23 13:33N 48°20' W 123°21'0 0.0
2015-Mar-23 12:33N 48°20' W 123°21'0 0.0
2015-Mar-23 11:33N 48°20' W 123°21'0 0.0
2015-Mar-23 10:33N 48°20' W 123°21'0 0.1
2015-Mar-23 09:33N 48°20' W 123°22'0 0.1
2015-Mar-23 08:33N 48°20' W 123°22'0 0.1
2015-Mar-23 07:30N 48°20' W 123°22'0 0.0
2015-Mar-23 06:30N 48°20' W 123°22'0 0.0
2015-Mar-23 05:33N 48°20' W 123°22'0 0.0
2015-Mar-23 04:33N 48°20' W 123°22'0 0.2
2015-Mar-23 03:33N 48°20' W 123°22'0 0.2
2015-Mar-23 02:33N 48°20' W 123°21'0 0.0
2015-Mar-23 01:33N 48°20' W 123°21'0 0.1
2015-Mar-23 00:33N 48°20' W 123°21'0 0.0
2015-Mar-22 23:33N 48°20' W 123°21'0 0.0
2015-Mar-22 22:33N 48°20' W 123°21'0 0.1
2015-Mar-22 21:33N 48°20' W 123°22'0 0.2
2015-Mar-22 20:33N 48°20' W 123°22'0 0.0
2015-Mar-22 19:33N 48°20' W 123°22'0 0.0
2015-Mar-22 18:33N 48°20' W 123°22'0 0.0
2015-Mar-22 17:33N 48°20' W 123°22'0 0.0
2015-Mar-22 16:33N 48°20' W 123°22'2 1.6
2015-Mar-22 15:33N 48°19' W 123°24'1110.5
2015-Mar-22 14:33N 48°09' W 123°22'1414.5
2015-Mar-22 13:33N 48°12' W 123°01'1615.7
2015-Mar-22 12:33N 48°07' W 122°39'1515.4
2015-Mar-22 11:33N 47°53' W 122°28'1717.4
2015-Mar-22 10:33N 47°36' W 122°27'1414.0
2015-Mar-22 09:34N 47°23' W 122°21'7 6.7
2015-Mar-22 08:34N 47°16' W 122°24'1 1.0
2015-Mar-22 07:30N 47°15' W 122°23'0 0.0
2015-Mar-22 06:31N 47°15' W 122°23'0 0.0
2015-Mar-22 05:30N 47°15' W 122°23'0 0.0
2015-Mar-22 04:30N 47°15' W 122°23'0 0.0
2015-Mar-22 03:24N 47°15' W 122°23'0 0.0
2015-Mar-22 02:06N 47°15' W 122°23'0 0.0
2015-Mar-22 00:30N 47°15' W 122°23'0 0.0
2015-Mar-21 23:30N 47°15' W 122°23'0 0.0
2015-Mar-21 22:06N 47°15' W 122°23'0 0.0
2015-Mar-21 21:30N 47°15' W 122°23'0 0.0
2015-Mar-21 20:30N 47°15' W 122°23'0 0.0
2015-Mar-21 19:30N 47°15' W 122°23'0 0.0
2015-Mar-21 18:24N 47°15' W 122°23'0 0.0
2015-Mar-21 17:30N 47°15' W 122°23'0 0.0
2015-Mar-21 16:30N 47°15' W 122°23'0 0.0
2015-Mar-21 15:30N 47°15' W 122°23'0 0.0
2015-Mar-21 14:30N 47°15' W 122°23'0 0.0
2015-Mar-21 13:30N 47°15' W 122°23'0 0.0
2015-Mar-21 12:30N 47°15' W 122°23'0 0.0
2015-Mar-21 11:30N 47°15' W 122°23'0 0.0
2015-Mar-21 10:24N 47°15' W 122°23'0 0.0
2015-Mar-21 09:30N 47°15' W 122°23'0 0.0
2015-Mar-21 08:12N 47°15' W 122°23'0 0.0
2015-Mar-21 07:24N 47°15' W 122°23'0 0.0
2015-Mar-21 06:30N 47°15' W 122°23'0 0.0
2015-Mar-21 05:30N 47°15' W 122°23'0 0.0
2015-Mar-21 04:30N 47°15' W 122°23'0 0.0
2015-Mar-21 03:24N 47°15' W 122°23'0 0.0
2015-Mar-21 02:06N 47°15' W 122°23'0 0.0
2015-Mar-21 01:24N 47°15' W 122°23'0 0.0
2015-Mar-21 00:24N 47°15' W 122°23'0 0.0
2015-Mar-20 23:30N 47°15' W 122°23'0 0.0
2015-Mar-20 22:30N 47°15' W 122°23'0 0.0
2015-Mar-20 20:24N 47°15' W 122°23'0 0.0
2015-Mar-20 19:21N 47°15' W 122°23'0 0.0
2015-Mar-20 17:33N 47°15' W 122°23'0 0.0
2015-Mar-20 16:33N 47°15' W 122°23'0 0.0
2015-Mar-20 15:33N 47°15' W 122°23'0 0.0
2015-Mar-20 14:33N 47°15' W 122°23'0 0.0
2015-Mar-20 13:33N 47°15' W 122°23'0 0.0
2015-Mar-20 12:24N 47°15' W 122°23'0 0.0
2015-Mar-20 11:18N 47°15' W 122°23'0 0.0
2015-Mar-20 10:12N 47°15' W 122°23'0 0.0
2015-Mar-20 09:18N 47°15' W 122°23'0 0.0
2015-Mar-20 08:30N 47°15' W 122°23'0 0.0
2015-Mar-20 06:24N 47°15' W 122°23'0 0.0
2015-Mar-19 21:30N 47°15' W 122°23'0 0.0
2015-Mar-19 18:12N 47°15' W 122°23'0 0.0
2015-Mar-19 16:12N 47°15' W 122°23'0 0.0
2015-Mar-19 15:24N 47°15' W 122°23'0 0.0
2015-Mar-19 14:30N 47°15' W 122°23'0 0.0
2015-Mar-19 13:30N 47°15' W 122°23'0 0.0
2015-Mar-19 12:30N 47°15' W 122°23'0 0.0
2015-Mar-19 11:30N 47°15' W 122°23'0 0.0
2015-Mar-19 10:30N 47°15' W 122°23'0 0.0
2015-Mar-19 09:30N 47°15' W 122°23'2 1.9
2015-Mar-19 08:33N 47°17' W 122°24'7 6.9
2015-Mar-19 07:34N 47°23' W 122°22'1716.7
2015-Mar-19 06:34N 47°39' W 122°28'1716.7
2015-Mar-19 05:34N 47°56' W 122°32'1515.3
2015-Mar-19 04:34N 48°09' W 122°44'1615.9
2015-Mar-19 03:33N 48°12' W 123°07'1312.6
2015-Mar-19 02:33N 48°11' W 123°26'1110.9
2015-Mar-19 01:33N 48°13' W 123°42'1313.2
2015-Mar-19 00:33N 48°15' W 124°02'1313.2
2015-Mar-18 23:33N 48°21' W 124°19'1414.1
2015-Mar-18 22:34N 48°27' W 124°39'1414.4
2015-Mar-18 21:33N 48°28' W 125°00'1515.3
2015-Mar-18 20:33N 48°23' W 125°22'1715.9
2015-Mar-18 19:30N 48°14' W 125°43'  

Dump ship's entire track history